Ocean Celebrity — HOSZ — position and weather

sailwx.info

Track history (hours):
 
Tides and Currents Weather Stations Pressure Air Temp Water Temp Dewpoint Dewpoint Depression Visibility Wind Speed Wind Dir Waves Ship Positions

Ocean Celebrity

Last reported at 2016-Dec-19 15:26 UTC. Time now 2017-Jan-22 18:22 UTC.
Position S 32°09' E 031°38'.
Warning: this ship's position is 34 days out of date.

Length 289 m; draft 17.9 m.

Type: Cargo ship. MMSI: 356712000.

Date/timePositionNaut miles runAvg speedWind from/ knotsBaromVisibWave heightAir tempDewpointWater temp
2016-Dec-19 15:26S 32°09' E 031°38'1112.4
2016-Dec-19 14:33S 32°04' E 031°50'1312.6
2016-Dec-19 13:34S 31°59' E 032°03'1212.2
2016-Dec-19 12:33S 31°53' E 032°16'1212.4
2016-Dec-19 11:33S 31°48' E 032°29'1313.0
2016-Dec-19 10:33S 31°42' E 032°43'1413.7
2016-Dec-19 09:33S 31°36' E 032°58'1312.6
2016-Dec-19 08:33S 31°31' E 033°11'1211.9
2016-Dec-19 07:33S 31°26' E 033°24'1212.4
2016-Dec-19 06:34S 31°20' E 033°37'1312.3
2016-Dec-19 05:32S 31°15' E 033°50'1312.9
2016-Dec-19 04:33S 31°09' E 034°03'1713.4
2016-Dec-19 03:17S 31°02' E 034°21'3913.6
2016-Dec-19 00:25S 30°45' E 035°02'1213.6
2016-Dec-18 23:33S 30°40' E 035°15'2813.6
2016-Dec-18 21:30S 30°28' E 035°44'1213.1
2016-Dec-18 20:33S 30°23' E 035°57'  
Track history (hours):
 
Tides and Currents Weather Stations Pressure Air Temp Water Temp Dewpoint Dewpoint Depression Visibility Wind Speed Wind Dir Waves Ship Positions

Ocean Celebrity

Last reported at 2016-Dec-19 15:26 UTC. Time now 2017-Jan-22 18:22 UTC.
Position S 32°09' E 031°38'.
Warning: this ship's position is 34 days out of date.

Length 289 m; draft 17.9 m.

Type: Cargo ship. MMSI: 356712000.

Date/timePositionNaut miles runAvg speedWind from/ knotsBaromVisibWave heightAir tempDewpointWater temp
2016-Dec-19 15:26S 32°09' E 031°38'1112.4
2016-Dec-19 14:33S 32°04' E 031°50'1312.6
2016-Dec-19 13:34S 31°59' E 032°03'1212.2
2016-Dec-19 12:33S 31°53' E 032°16'1212.4
2016-Dec-19 11:33S 31°48' E 032°29'1313.0
2016-Dec-19 10:33S 31°42' E 032°43'1413.7
2016-Dec-19 09:33S 31°36' E 032°58'1312.6
2016-Dec-19 08:33S 31°31' E 033°11'1211.9
2016-Dec-19 07:33S 31°26' E 033°24'1212.4
2016-Dec-19 06:34S 31°20' E 033°37'1312.3
2016-Dec-19 05:32S 31°15' E 033°50'1312.9
2016-Dec-19 04:33S 31°09' E 034°03'1713.4
2016-Dec-19 03:17S 31°02' E 034°21'3913.6
2016-Dec-19 00:25S 30°45' E 035°02'1213.6
2016-Dec-18 23:33S 30°40' E 035°15'2813.6
2016-Dec-18 21:30S 30°28' E 035°44'1213.1
2016-Dec-18 20:33S 30°23' E 035°57'  

Dump ship's entire track history